Terminal Aerodrome Forecast
Issued by NWS Melbourne, FL

Home | Current Version | Previous Version | Text Only | Print | Product List | Glossary On
Versions: 1 2 3 4 5 6 7 8 9 10 11 12 13 14
000
FTUS42 KMLB 200204 AAB
TAFMLB
TAF AMD
KMLB 200204Z 2002/2024 36012KT P6SM SCT015 BKN030
      TEMPO 2002/2004 BKN015
     FM200500 36010KT P6SM SKC
     FM201500 07014G20KT P6SM SCT040=

USA.gov is the U.S. government's official web portal to all federal, state and local government web resources and services.